Terminal Aerodrome Forecast
Issued by NWS

Home | Current Version | Previous Version | Text Only | Print | Product List | Glossary On
Versions: 1 2 3 4 5 6 7 8 9 10 11 12
776
FTUS42 TJSJ 260540
TAFISX
TAF
TISX 260540Z 2606/2706 09006KT P6SM SCT025 BKN070
     FM261200 11012G16KT P6SM SCT035
     FM270000 09007KT P6SM FEW025=

USA.gov is the U.S. government's official web portal to all federal, state and local government web resources and services.